Time;durP1;ratioP1;P1;durP2;ratioP2;P2;SDS_P1;SDS_P2;PMS_P1;PMS_P2;Temp;Humidity;BMP_temperature;BMP_pressure;BME280_temperature;BME280_humidity;BME280_pressure;Samples;Min_cycle;Max_cycle;Signal;HPM_P1;HPM_P2
2022/01/13 00:00:02;;;;;;;313.77;41.73;;;;;;;;;;5028021;28;20611;-70
2022/01/13 00:02:32;;;;;;;253.50;40.30;;;;;;;;;;5029602;28;21021;-69
2022/01/13 00:05:00;;;;;;;221.70;34.47;;;;;;;;;;5028584;28;20231;-69
2022/01/13 00:07:27;;;;;;;252.00;39.60;;;;;;;;;;5026569;28;20699;-67
2022/01/13 00:09:53;;;;;;;245.40;38.20;;;;;;;;;;5027878;28;20234;-67
2022/01/13 00:12:22;;;;;;;246.93;34.77;;;;;;;;;;5028712;28;20262;-67
2022/01/13 00:15:08;;;;;;;253.00;35.80;;;;;;;;;;5027583;28;20212;-68
2022/01/13 00:17:56;;;;;;;197.60;33.03;;;;;;;;;;5028460;28;20243;-66
2022/01/13 00:20:34;;;;;;;259.23;37.03;;;;;;;;;;5027855;28;20694;-67
2022/01/13 00:25:46;;;;;;;300.53;41.27;;;;;;;;;;5028002;28;20225;-69
2022/01/13 00:28:18;;;;;;;286.23;37.17;;;;;;;;;;5027258;28;20294;-69
2022/01/13 00:30:49;;;;;;;255.23;36.73;;;;;;;;;;5027732;28;20210;-69
2022/01/13 00:33:17;;;;;;;267.47;37.07;;;;;;;;;;5026940;28;20635;-69
2022/01/13 00:35:45;;;;;;;239.60;33.13;;;;;;;;;;5027194;28;20230;-69
2022/01/13 00:38:11;;;;;;;238.87;34.80;;;;;;;;;;5027653;28;20280;-68
2022/01/13 00:40:38;;;;;;;241.07;33.83;;;;;;;;;;5031774;28;20212;-67
2022/01/13 00:43:04;;;;;;;292.80;38.90;;;;;;;;;;5030486;28;20222;-68
2022/01/13 00:45:33;;;;;;;231.20;35.70;;;;;;;;;;5032827;28;20261;-67
2022/01/13 00:48:00;;;;;;;186.23;31.83;;;;;;;;;;5031333;28;20737;-68
2022/01/13 00:50:26;;;;;;;241.70;35.33;;;;;;;;;;5030598;28;20230;-68
2022/01/13 00:52:54;;;;;;;234.67;34.20;;;;;;;;;;5031704;28;20212;-68
2022/01/13 00:55:22;;;;;;;213.40;34.47;;;;;;;;;;5031839;28;20845;-68
2022/01/13 00:57:49;;;;;;;253.73;35.03;;;;;;;;;;5032044;28;20308;-68
2022/01/13 01:00:16;;;;;;;282.97;40.30;;;;;;;;;;5031846;28;20296;-68
2022/01/13 01:02:42;;;;;;;250.87;37.50;;;;;;;;;;5031795;28;20634;-68
2022/01/13 01:05:09;;;;;;;284.20;43.20;;;;;;;;;;5031884;28;20285;-67
2022/01/13 01:07:36;;;;;;;227.03;31.70;;;;;;;;;;5032715;28;20289;-68
2022/01/13 01:10:05;;;;;;;252.13;37.90;;;;;;;;;;5031801;28;20697;-68
2022/01/13 01:12:34;;;;;;;280.63;39.17;;;;;;;;;;5031056;28;20234;-68
2022/01/13 01:15:01;;;;;;;358.30;45.20;;;;;;;;;;5031122;28;20219;-68
2022/01/13 01:17:28;;;;;;;303.30;41.30;;;;;;;;;;5032273;28;20293;-68
2022/01/13 01:19:54;;;;;;;216.07;33.43;;;;;;;;;;5029692;28;20229;-67
2022/01/13 01:22:41;;;;;;;235.60;35.27;;;;;;;;;;5030549;28;20296;-68
2022/01/13 01:27:56;;;;;;;279.30;39.27;;;;;;;;;;5030342;28;20710;-68
2022/01/13 01:30:30;;;;;;;266.80;38.07;;;;;;;;;;5031209;28;20221;-67
2022/01/13 01:32:57;;;;;;;216.13;34.10;;;;;;;;;;5030393;28;21119;-68
2022/01/13 01:35:26;;;;;;;241.67;38.40;;;;;;;;;;5031299;28;20820;-69
2022/01/13 01:37:53;;;;;;;256.63;35.63;;;;;;;;;;5031224;28;20296;-68
2022/01/13 01:40:21;;;;;;;275.37;37.77;;;;;;;;;;5031142;28;20222;-68
2022/01/13 01:42:48;;;;;;;257.20;39.10;;;;;;;;;;5030294;28;20235;-68
2022/01/13 01:45:15;;;;;;;285.23;38.50;;;;;;;;;;5028496;28;20265;-68
2022/01/13 01:47:44;;;;;;;250.27;35.57;;;;;;;;;;5030758;28;20233;-68
2022/01/13 01:50:18;;;;;;;237.27;32.13;;;;;;;;;;5028822;28;20318;-68
2022/01/13 01:52:45;;;;;;;235.53;33.70;;;;;;;;;;5030714;28;20210;-68
2022/01/13 01:55:11;;;;;;;183.73;29.67;;;;;;;;;;5030568;28;20298;-68
2022/01/13 01:57:39;;;;;;;247.67;34.80;;;;;;;;;;5029970;28;20825;-68
2022/01/13 02:00:09;;;;;;;177.33;28.23;;;;;;;;;;5029514;28;20539;-68
2022/01/13 02:02:36;;;;;;;168.00;30.50;;;;;;;;;;5030976;28;20655;-68
2022/01/13 02:05:03;;;;;;;218.00;29.53;;;;;;;;;;5031987;28;20227;-68
2022/01/13 02:07:29;;;;;;;155.03;26.87;;;;;;;;;;5029575;28;20223;-68
2022/01/13 02:09:56;;;;;;;193.90;30.90;;;;;;;;;;5030453;28;20279;-68
2022/01/13 02:12:35;;;;;;;203.07;31.60;;;;;;;;;;5029997;28;20242;-68
2022/01/13 02:15:28;;;;;;;192.70;29.93;;;;;;;;;;5031090;28;20635;-68
2022/01/13 02:17:55;;;;;;;178.80;30.47;;;;;;;;;;5028719;28;20235;-68
2022/01/13 02:20:23;;;;;;;218.13;31.47;;;;;;;;;;5030640;28;20234;-68
2022/01/13 02:22:49;;;;;;;187.37;27.13;;;;;;;;;;5030432;28;20230;-68
2022/01/13 02:25:16;;;;;;;210.23;32.57;;;;;;;;;;5029472;28;20277;-68
2022/01/13 02:27:44;;;;;;;183.67;27.80;;;;;;;;;;5029284;28;20265;-68
2022/01/13 02:30:11;;;;;;;203.80;29.97;;;;;;;;;;5029469;28;20219;-68
2022/01/13 02:32:38;;;;;;;202.70;32.10;;;;;;;;;;5028505;28;20269;-68
2022/01/13 02:35:05;;;;;;;159.83;27.03;;;;;;;;;;5029378;28;20226;-68
2022/01/13 02:37:33;;;;;;;185.73;27.07;;;;;;;;;;5029806;28;20219;-68
2022/01/13 02:39:59;;;;;;;253.87;34.17;;;;;;;;;;5028539;28;20223;-68
2022/01/13 02:42:28;;;;;;;167.23;23.73;;;;;;;;;;5028969;28;20231;-68
2022/01/13 02:45:02;;;;;;;190.37;30.50;;;;;;;;;;5031130;28;20221;-68
2022/01/13 02:47:48;;;;;;;176.53;28.33;;;;;;;;;;5029205;28;20311;-68
2022/01/13 02:50:14;;;;;;;221.60;31.17;;;;;;;;;;5030068;28;20253;-69
2022/01/13 02:52:42;;;;;;;202.40;32.37;;;;;;;;;;5029566;28;20487;-68
2022/01/13 02:55:09;;;;;;;184.40;29.23;;;;;;;;;;5030495;28;20673;-68
2022/01/13 02:57:38;;;;;;;208.67;30.47;;;;;;;;;;5028650;28;20250;-68
2022/01/13 03:00:06;;;;;;;189.47;32.37;;;;;;;;;;5029826;28;20280;-68
2022/01/13 03:02:33;;;;;;;197.73;30.83;;;;;;;;;;5028292;28;21094;-68
2022/01/13 03:05:00;;;;;;;225.13;35.17;;;;;;;;;;5027660;28;20223;-68
2022/01/13 03:07:30;;;;;;;209.80;32.03;;;;;;;;;;5030127;28;20290;-69
2022/01/13 03:09:58;;;;;;;201.97;32.67;;;;;;;;;;5028968;28;20234;-68
2022/01/13 03:12:26;;;;;;;265.30;36.13;;;;;;;;;;5027467;28;20284;-68
2022/01/13 03:14:53;;;;;;;192.87;30.23;;;;;;;;;;5029709;28;20208;-68
2022/01/13 03:17:19;;;;;;;232.03;34.53;;;;;;;;;;5029615;28;20264;-68
2022/01/13 03:19:45;;;;;;;152.07;27.87;;;;;;;;;;5027543;28;20227;-69
2022/01/13 03:22:14;;;;;;;210.63;31.87;;;;;;;;;;5030119;28;20553;-68
2022/01/13 03:24:40;;;;;;;205.47;31.70;;;;;;;;;;5029533;28;20693;-68
2022/01/13 03:27:12;;;;;;;198.43;31.23;;;;;;;;;;5026581;28;20214;-68
2022/01/13 03:29:39;;;;;;;184.53;30.93;;;;;;;;;;5029385;28;20219;-69
2022/01/13 03:32:06;;;;;;;220.10;34.10;;;;;;;;;;5029213;28;20277;-68
2022/01/13 03:34:32;;;;;;;247.67;36.97;;;;;;;;;;5029050;28;20210;-69
2022/01/13 03:36:59;;;;;;;249.80;36.60;;;;;;;;;;5028814;28;20211;-69
2022/01/13 03:39:25;;;;;;;193.90;31.27;;;;;;;;;;5030377;28;20684;-68
2022/01/13 03:41:51;;;;;;;213.90;33.63;;;;;;;;;;5029383;28;20235;-68
2022/01/13 03:44:27;;;;;;;231.53;34.37;;;;;;;;;;5028208;28;20474;-68
2022/01/13 03:46:54;;;;;;;249.87;36.37;;;;;;;;;;5029012;28;20226;-68
2022/01/13 03:49:20;;;;;;;189.23;30.17;;;;;;;;;;5026525;28;20768;-68
2022/01/13 03:52:53;;;;;;;229.80;35.60;;;;;;;;;;5029314;28;20228;-68
2022/01/13 03:56:12;;;;;;;203.50;33.23;;;;;;;;;;5028003;28;20296;-68
2022/01/13 03:59:33;;;;;;;251.57;32.67;;;;;;;;;;4947590;28;20678;-68
2022/01/13 04:02:09;;;;;;;242.10;35.80;;;;;;;;;;4946747;28;20738;-68
2022/01/13 04:04:38;;;;;;;193.87;31.80;;;;;;;;;;5016629;28;20803;-68
2022/01/13 04:07:22;;;;;;;189.23;30.07;;;;;;;;;;5026410;28;20211;-68
2022/01/13 04:10:22;;;;;;;223.77;36.07;;;;;;;;;;5028343;28;20261;-69
2022/01/13 04:12:48;;;;;;;158.63;25.87;;;;;;;;;;5028347;28;20246;-68
2022/01/13 04:15:17;;;;;;;195.87;31.23;;;;;;;;;;5030614;28;20226;-68
2022/01/13 04:17:44;;;;;;;178.93;30.77;;;;;;;;;;5032176;28;20222;-68
2022/01/13 04:20:11;;;;;;;185.30;31.27;;;;;;;;;;5031555;28;20682;-68
2022/01/13 04:22:38;;;;;;;209.53;36.20;;;;;;;;;;5031510;28;20231;-68
2022/01/13 04:25:05;;;;;;;207.87;35.80;;;;;;;;;;5033527;28;20217;-68
2022/01/13 04:27:37;;;;;;;215.13;34.17;;;;;;;;;;5031725;28;20740;-68
2022/01/13 04:30:33;;;;;;;205.33;34.30;;;;;;;;;;5031092;28;20284;-68
2022/01/13 04:33:00;;;;;;;127.13;23.63;;;;;;;;;;5031022;28;20229;-68
2022/01/13 04:35:26;;;;;;;188.63;31.77;;;;;;;;;;5029063;28;20812;-68
2022/01/13 04:37:52;;;;;;;230.33;36.20;;;;;;;;;;5032038;28;20215;-68
2022/01/13 04:40:19;;;;;;;220.57;34.53;;;;;;;;;;5030657;28;20211;-68
2022/01/13 04:42:52;;;;;;;132.53;25.83;;;;;;;;;;5031880;28;20234;-68
2022/01/13 04:45:19;;;;;;;172.73;30.40;;;;;;;;;;5031642;28;20217;-68
2022/01/13 04:47:47;;;;;;;196.77;33.73;;;;;;;;;;5031885;28;20226;-68
2022/01/13 04:50:15;;;;;;;124.13;25.60;;;;;;;;;;5031512;28;20226;-68
2022/01/13 04:52:41;;;;;;;194.37;35.30;;;;;;;;;;5030450;28;20265;-68
2022/01/13 04:55:11;;;;;;;236.03;39.20;;;;;;;;;;5031993;28;20237;-68
2022/01/13 04:57:37;;;;;;;197.97;36.43;;;;;;;;;;5031420;28;20211;-68
2022/01/13 05:00:06;;;;;;;170.50;31.27;;;;;;;;;;5032078;28;20719;-68
2022/01/13 05:02:33;;;;;;;191.93;34.27;;;;;;;;;;5032265;28;20737;-68
2022/01/13 05:04:59;;;;;;;213.30;37.13;;;;;;;;;;5031251;28;20228;-68
2022/01/13 05:07:27;;;;;;;190.30;32.90;;;;;;;;;;5031622;28;20215;-68
2022/01/13 05:09:53;;;;;;;150.80;28.80;;;;;;;;;;5031619;28;20279;-68
2022/01/13 05:12:25;;;;;;;167.70;31.13;;;;;;;;;;5030272;28;20246;-68
2022/01/13 05:14:55;;;;;;;193.60;35.07;;;;;;;;;;5031790;28;20210;-69
2022/01/13 05:17:46;;;;;;;201.87;34.67;;;;;;;;;;5031596;28;20227;-68
2022/01/13 05:20:15;;;;;;;223.60;35.47;;;;;;;;;;5030664;28;20241;-68
2022/01/13 05:22:43;;;;;;;188.60;36.03;;;;;;;;;;5031078;28;20234;-68
2022/01/13 05:25:10;;;;;;;166.73;32.10;;;;;;;;;;5030882;28;20223;-68
2022/01/13 05:27:36;;;;;;;169.43;34.40;;;;;;;;;;5030282;28;20219;-68
2022/01/13 05:30:04;;;;;;;225.87;39.73;;;;;;;;;;5029559;28;20215;-68
2022/01/13 05:32:31;;;;;;;192.37;35.70;;;;;;;;;;5030406;28;20564;-73
2022/01/13 05:34:57;;;;;;;182.83;34.13;;;;;;;;;;5032761;28;20279;-73
2022/01/13 05:37:24;;;;;;;213.30;37.83;;;;;;;;;;5030802;28;20625;-73
2022/01/13 05:39:51;;;;;;;237.80;40.67;;;;;;;;;;5030950;28;20320;-73
2022/01/13 05:42:18;;;;;;;240.00;40.40;;;;;;;;;;5029554;28;20890;-73
2022/01/13 05:44:44;;;;;;;241.73;38.87;;;;;;;;;;5031430;28;20211;-73
2022/01/13 05:47:12;;;;;;;251.37;40.97;;;;;;;;;;5030442;28;20227;-73
2022/01/13 05:49:40;;;;;;;259.63;41.63;;;;;;;;;;5030732;28;20362;-73
2022/01/13 05:52:07;;;;;;;211.37;38.63;;;;;;;;;;5029627;28;20993;-73
2022/01/13 05:54:34;;;;;;;209.53;36.70;;;;;;;;;;5030962;28;20218;-73
2022/01/13 05:57:02;;;;;;;173.27;35.87;;;;;;;;;;5030189;28;20269;-73
2022/01/13 05:59:28;;;;;;;174.33;34.33;;;;;;;;;;5030848;28;20214;-73
2022/01/13 06:01:54;;;;;;;167.80;34.80;;;;;;;;;;5029640;28;20230;-73
2022/01/13 06:04:21;;;;;;;128.03;30.03;;;;;;;;;;5031857;28;20222;-73
2022/01/13 06:06:47;;;;;;;167.60;34.83;;;;;;;;;;5030009;28;20694;-73
2022/01/13 06:09:14;;;;;;;165.80;31.47;;;;;;;;;;5031796;28;20215;-73
2022/01/13 06:11:44;;;;;;;204.17;35.00;;;;;;;;;;5030708;28;20773;-73
2022/01/13 06:14:12;;;;;;;172.53;34.47;;;;;;;;;;5028571;28;20231;-73
2022/01/13 06:16:38;;;;;;;202.27;33.50;;;;;;;;;;5029723;28;20707;-73
2022/01/13 06:19:05;;;;;;;226.70;38.33;;;;;;;;;;5031652;28;20308;-73
2022/01/13 06:21:31;;;;;;;253.40;42.83;;;;;;;;;;5028790;28;20227;-73
2022/01/13 06:23:57;;;;;;;257.67;41.97;;;;;;;;;;5030003;28;20624;-73
2022/01/13 06:26:24;;;;;;;246.57;40.43;;;;;;;;;;5029360;28;20215;-73
2022/01/13 06:28:50;;;;;;;289.30;45.50;;;;;;;;;;5028563;28;20631;-73
2022/01/13 06:31:18;;;;;;;205.07;37.23;;;;;;;;;;5027924;28;20214;-73
2022/01/13 06:33:44;;;;;;;180.40;36.90;;;;;;;;;;5030986;28;20260;-73
2022/01/13 06:36:11;;;;;;;130.67;29.00;;;;;;;;;;5029085;28;21004;-73
2022/01/13 06:38:37;;;;;;;174.97;35.07;;;;;;;;;;5028663;28;20206;-72
2022/01/13 06:41:04;;;;;;;204.57;38.83;;;;;;;;;;5030740;28;20669;-73
2022/01/13 06:43:31;;;;;;;158.23;32.90;;;;;;;;;;5029764;28;20253;-73
2022/01/13 06:45:57;;;;;;;120.20;28.63;;;;;;;;;;5030117;28;20215;-73
2022/01/13 06:48:25;;;;;;;128.33;33.03;;;;;;;;;;5029023;28;20789;-73
2022/01/13 06:50:52;;;;;;;104.47;27.87;;;;;;;;;;5029897;28;20281;-73
2022/01/13 06:53:20;;;;;;;97.40;27.80;;;;;;;;;;5027850;28;20667;-73
2022/01/13 06:55:47;;;;;;;106.30;29.70;;;;;;;;;;5029943;28;20211;-73
2022/01/13 06:58:13;;;;;;;120.07;30.43;;;;;;;;;;5027963;28;20622;-74
2022/01/13 07:00:40;;;;;;;116.80;31.63;;;;;;;;;;5026247;28;20292;-73
2022/01/13 07:03:06;;;;;;;118.57;28.80;;;;;;;;;;5028942;28;20242;-73
2022/01/13 07:05:34;;;;;;;121.43;31.67;;;;;;;;;;5028637;28;20674;-73
2022/01/13 07:08:01;;;;;;;130.57;32.87;;;;;;;;;;5028936;28;20249;-73
2022/01/13 07:10:27;;;;;;;138.90;29.43;;;;;;;;;;5027036;28;20239;-74
2022/01/13 07:12:54;;;;;;;124.07;31.93;;;;;;;;;;5027005;28;20671;-73
2022/01/13 07:15:21;;;;;;;128.63;31.40;;;;;;;;;;5028425;28;20601;-73
2022/01/13 07:17:47;;;;;;;131.57;30.80;;;;;;;;;;5026988;28;20242;-73
2022/01/13 07:20:14;;;;;;;108.27;27.63;;;;;;;;;;5028171;28;20231;-73
2022/01/13 07:22:42;;;;;;;146.30;33.40;;;;;;;;;;5026731;28;20209;-73
2022/01/13 07:25:10;;;;;;;148.97;32.43;;;;;;;;;;5026232;28;20261;-73
2022/01/13 07:27:36;;;;;;;143.83;33.87;;;;;;;;;;5028543;28;20280;-73
2022/01/13 07:30:03;;;;;;;125.63;31.40;;;;;;;;;;5027027;28;20257;-73
2022/01/13 07:32:29;;;;;;;141.03;32.27;;;;;;;;;;5028726;28;20308;-73
2022/01/13 07:34:56;;;;;;;141.20;31.13;;;;;;;;;;5026507;28;20760;-73
2022/01/13 07:37:24;;;;;;;143.30;32.37;;;;;;;;;;5027141;28;20957;-73
2022/01/13 07:39:51;;;;;;;134.60;28.77;;;;;;;;;;5027469;28;20264;-73
2022/01/13 07:42:18;;;;;;;118.03;30.70;;;;;;;;;;5024036;28;21186;-73
2022/01/13 07:44:44;;;;;;;104.97;26.83;;;;;;;;;;5025830;28;20227;-73
2022/01/13 07:47:11;;;;;;;136.73;29.50;;;;;;;;;;5025690;28;20258;-73
2022/01/13 07:49:37;;;;;;;103.53;27.53;;;;;;;;;;5024010;28;20214;-73
2022/01/13 07:52:04;;;;;;;129.23;32.47;;;;;;;;;;5027220;28;20265;-73
2022/01/13 07:54:32;;;;;;;119.87;28.90;;;;;;;;;;5027309;28;20816;-73
2022/01/13 07:56:59;;;;;;;122.30;28.37;;;;;;;;;;5027491;28;20227;-73
2022/01/13 07:59:28;;;;;;;142.40;30.57;;;;;;;;;;5025290;28;20874;-73
2022/01/13 08:01:54;;;;;;;109.83;28.20;;;;;;;;;;5027832;28;20231;-73
2022/01/13 08:04:21;;;;;;;129.43;28.53;;;;;;;;;;5026056;28;20359;-73
2022/01/13 08:06:48;;;;;;;129.57;32.10;;;;;;;;;;5025581;28;21010;-73
2022/01/13 08:09:14;;;;;;;98.73;26.57;;;;;;;;;;5026583;28;20222;-73
2022/01/13 08:11:41;;;;;;;141.17;32.50;;;;;;;;;;5026176;28;20270;-73
2022/01/13 08:14:08;;;;;;;123.57;29.47;;;;;;;;;;5024857;28;20904;-73
2022/01/13 08:16:37;;;;;;;145.50;32.73;;;;;;;;;;5024072;28;20230;-73
2022/01/13 08:21:48;;;;;;;122.03;29.70;;;;;;;;;;5026313;28;20268;-73
2022/01/13 08:24:15;;;;;;;156.00;31.80;;;;;;;;;;5025991;28;20343;-73
2022/01/13 08:26:41;;;;;;;150.43;33.00;;;;;;;;;;5025715;28;20659;-73
2022/01/13 08:29:09;;;;;;;189.87;37.37;;;;;;;;;;5023799;28;20560;-73
2022/01/13 08:31:35;;;;;;;156.40;34.97;;;;;;;;;;5022776;28;20239;-73
2022/01/13 08:34:02;;;;;;;169.10;30.63;;;;;;;;;;5024503;28;20208;-73
2022/01/13 08:36:28;;;;;;;171.93;34.17;;;;;;;;;;5022478;28;20273;-73
2022/01/13 08:38:54;;;;;;;185.80;38.00;;;;;;;;;;5024549;28;20211;-73
2022/01/13 08:41:21;;;;;;;149.60;33.43;;;;;;;;;;5021845;28;20215;-74
2022/01/13 08:43:51;;;;;;;140.50;32.67;;;;;;;;;;5025804;28;20234;-73
2022/01/13 08:46:20;;;;;;;159.93;32.43;;;;;;;;;;5024443;28;20584;-74
2022/01/13 08:48:46;;;;;;;149.57;32.00;;;;;;;;;;5025484;28;21018;-73
2022/01/13 08:51:17;;;;;;;181.57;35.93;;;;;;;;;;5022990;28;20297;-73
2022/01/13 08:53:43;;;;;;;165.23;35.30;;;;;;;;;;5022934;28;20208;-74
2022/01/13 08:56:10;;;;;;;181.20;36.83;;;;;;;;;;5020731;28;20345;-73
2022/01/13 08:58:36;;;;;;;197.37;38.40;;;;;;;;;;5023876;28;20581;-73
2022/01/13 09:01:02;;;;;;;155.20;33.20;;;;;;;;;;5024500;28;20219;-73
2022/01/13 09:03:30;;;;;;;195.23;37.10;;;;;;;;;;5024939;28;20666;-73
2022/01/13 09:05:57;;;;;;;140.43;29.47;;;;;;;;;;5024627;28;20264;-73
2022/01/13 09:08:23;;;;;;;168.67;33.50;;;;;;;;;;5025591;28;20971;-73
2022/01/13 09:10:50;;;;;;;147.30;34.60;;;;;;;;;;5023610;28;20281;-73
2022/01/13 09:13:16;;;;;;;166.30;35.23;;;;;;;;;;5025360;28;21056;-73
2022/01/13 09:15:46;;;;;;;186.40;36.90;;;;;;;;;;5026071;28;20217;-73
2022/01/13 09:18:16;;;;;;;163.00;34.10;;;;;;;;;;5024913;28;21627;-74
2022/01/13 09:20:45;;;;;;;151.27;33.00;;;;;;;;;;5025902;28;20854;-73
2022/01/13 09:23:13;;;;;;;197.10;35.80;;;;;;;;;;5023786;28;20330;-73
2022/01/13 09:25:40;;;;;;;189.13;37.40;;;;;;;;;;5024660;28;20211;-73
2022/01/13 09:28:09;;;;;;;157.97;37.00;;;;;;;;;;5028262;28;20219;-73
2022/01/13 09:30:37;;;;;;;179.00;35.43;;;;;;;;;;5029571;28;20222;-73
2022/01/13 09:33:04;;;;;;;155.07;33.37;;;;;;;;;;5028208;28;20235;-73
2022/01/13 09:35:30;;;;;;;167.10;33.00;;;;;;;;;;5027847;28;20458;-73
2022/01/13 09:37:58;;;;;;;168.67;33.90;;;;;;;;;;5028322;28;20226;-73
2022/01/13 09:40:25;;;;;;;131.20;30.20;;;;;;;;;;5027613;28;20212;-73
2022/01/13 09:42:53;;;;;;;142.77;29.23;;;;;;;;;;5029160;28;20218;-73
2022/01/13 09:45:20;;;;;;;126.83;29.67;;;;;;;;;;5027041;28;20234;-73
2022/01/13 09:47:47;;;;;;;162.97;32.67;;;;;;;;;;5028183;28;21087;-73
2022/01/13 09:50:16;;;;;;;150.57;30.00;;;;;;;;;;5027432;28;20271;-72
2022/01/13 09:52:43;;;;;;;134.57;29.77;;;;;;;;;;5027418;28;20212;-73
2022/01/13 09:55:13;;;;;;;128.17;28.83;;;;;;;;;;5027707;28;20212;-73
2022/01/13 09:57:42;;;;;;;147.23;30.40;;;;;;;;;;5028400;28;20223;-73
2022/01/13 10:00:10;;;;;;;101.10;25.37;;;;;;;;;;5026883;28;20225;-73
2022/01/13 10:02:37;;;;;;;150.83;34.27;;;;;;;;;;5027794;28;20216;-73
2022/01/13 10:05:04;;;;;;;109.07;27.70;;;;;;;;;;5026695;28;20246;-73
2022/01/13 10:07:32;;;;;;;125.93;27.13;;;;;;;;;;5028289;28;20218;-73
2022/01/13 10:10:02;;;;;;;110.73;26.30;;;;;;;;;;5028272;28;20239;-73
2022/01/13 10:12:37;;;;;;;122.77;30.40;;;;;;;;;;5026472;28;20240;-73
2022/01/13 10:17:53;;;;;;;107.07;27.60;;;;;;;;;;5028033;28;20233;-73
2022/01/13 10:20:22;;;;;;;102.83;26.87;;;;;;;;;;5027683;28;20224;-73
2022/01/13 10:22:49;;;;;;;103.23;29.70;;;;;;;;;;5027579;28;20221;-73
2022/01/13 10:25:31;;;;;;;125.23;29.17;;;;;;;;;;5028755;28;20231;-73
2022/01/13 10:28:13;;;;;;;125.93;28.97;;;;;;;;;;5025952;28;20223;-73
2022/01/13 10:30:40;;;;;;;140.23;32.67;;;;;;;;;;5027711;28;20215;-73
2022/01/13 10:33:16;;;;;;;116.03;28.47;;;;;;;;;;5026491;28;20223;-73
2022/01/13 10:35:43;;;;;;;115.17;32.50;;;;;;;;;;5026712;28;20692;-73
2022/01/13 10:38:10;;;;;;;128.83;31.73;;;;;;;;;;5026672;28;20211;-73
2022/01/13 10:40:40;;;;;;;134.20;30.93;;;;;;;;;;5024598;28;20302;-73
2022/01/13 10:43:12;;;;;;;137.27;33.77;;;;;;;;;;5029153;28;20751;-73
2022/01/13 10:45:41;;;;;;;144.50;34.73;;;;;;;;;;5026853;28;20229;-73
2022/01/13 10:48:11;;;;;;;122.03;31.93;;;;;;;;;;5025517;28;20224;-73
2022/01/13 10:50:41;;;;;;;150.67;34.93;;;;;;;;;;5026995;28;20313;-73
2022/01/13 10:53:11;;;;;;;139.23;31.50;;;;;;;;;;5028434;28;20296;-73
2022/01/13 10:55:40;;;;;;;123.93;29.10;;;;;;;;;;5028388;28;20257;-73
2022/01/13 10:58:09;;;;;;;113.37;28.47;;;;;;;;;;5025395;28;20842;-73
2022/01/13 11:00:36;;;;;;;135.33;31.97;;;;;;;;;;5026273;28;20642;-73
2022/01/13 11:03:06;;;;;;;160.37;34.27;;;;;;;;;;5027630;28;20230;-73
2022/01/13 11:05:35;;;;;;;154.67;32.93;;;;;;;;;;5027534;28;20254;-73
2022/01/13 11:08:06;;;;;;;131.37;28.10;;;;;;;;;;5026596;28;20825;-73
2022/01/13 11:10:33;;;;;;;139.80;32.67;;;;;;;;;;5026765;28;20273;-73
2022/01/13 11:13:03;;;;;;;135.00;33.10;;;;;;;;;;5024342;28;20241;-73
2022/01/13 11:15:31;;;;;;;112.80;29.93;;;;;;;;;;5027944;28;20234;-73
2022/01/13 11:18:00;;;;;;;108.80;28.47;;;;;;;;;;5026597;28;20231;-73
2022/01/13 11:20:28;;;;;;;109.77;27.73;;;;;;;;;;5026603;28;20683;-73
2022/01/13 11:22:57;;;;;;;113.77;30.90;;;;;;;;;;5026591;28;20219;-73
2022/01/13 11:25:26;;;;;;;84.53;24.63;;;;;;;;;;5024151;28;20721;-73
2022/01/13 11:27:53;;;;;;;98.73;27.70;;;;;;;;;;5026680;28;20685;-73
2022/01/13 11:30:22;;;;;;;99.47;29.40;;;;;;;;;;5025734;28;20219;-73
2022/01/13 11:32:51;;;;;;;102.47;30.27;;;;;;;;;;5027556;28;20301;-73
2022/01/13 11:35:22;;;;;;;101.63;29.73;;;;;;;;;;5026322;28;20227;-73
2022/01/13 11:37:50;;;;;;;81.00;27.43;;;;;;;;;;5027149;28;20202;-73
2022/01/13 11:40:38;;;;;;;108.73;30.87;;;;;;;;;;5026435;28;20554;-73
2022/01/13 11:43:07;;;;;;;85.17;26.03;;;;;;;;;;5026664;28;20256;-72
2022/01/13 11:45:40;;;;;;;94.70;30.47;;;;;;;;;;5027652;28;20235;-73
2022/01/13 11:48:18;;;;;;;89.73;30.43;;;;;;;;;;5024597;28;21172;-73
2022/01/13 11:50:49;;;;;;;77.50;28.17;;;;;;;;;;5026221;28;20277;-73
2022/01/13 11:53:21;;;;;;;72.90;26.47;;;;;;;;;;5025687;28;20249;-73
2022/01/13 11:55:52;;;;;;;66.40;26.97;;;;;;;;;;5030645;28;20273;-72
2022/01/13 11:58:21;;;;;;;76.30;28.77;;;;;;;;;;5026144;28;20219;-73
2022/01/13 12:00:50;;;;;;;74.17;28.90;;;;;;;;;;5025993;28;20208;-72
2022/01/13 12:03:29;;;;;;;77.13;26.27;;;;;;;;;;5027023;28;20838;-74
2022/01/13 12:05:57;;;;;;;70.80;28.27;;;;;;;;;;5028557;28;20282;-73
2022/01/13 12:08:52;;;;;;;59.73;25.10;;;;;;;;;;5027328;28;20265;-73
2022/01/13 12:11:50;;;;;;;66.07;27.37;;;;;;;;;;4980502;28;20242;-73
2022/01/13 12:14:45;;;;;;;59.53;25.50;;;;;;;;;;5026821;28;20694;-73
2022/01/13 12:17:23;;;;;;;63.67;26.87;;;;;;;;;;5025868;28;20238;-73
2022/01/13 12:19:59;;;;;;;64.30;26.90;;;;;;;;;;5025332;28;20789;-73
2022/01/13 12:22:41;;;;;;;63.63;26.57;;;;;;;;;;5026943;28;20288;-73
2022/01/13 12:25:10;;;;;;;59.23;26.23;;;;;;;;;;5027027;28;20694;-73
2022/01/13 12:27:54;;;;;;;68.27;29.50;;;;;;;;;;5023218;28;20662;-73
2022/01/13 12:30:26;;;;;;;58.63;27.43;;;;;;;;;;5026326;28;20216;-73
2022/01/13 12:32:54;;;;;;;67.80;27.90;;;;;;;;;;5025949;28;20235;-73
2022/01/13 12:35:42;;;;;;;63.47;25.73;;;;;;;;;;5027565;28;20222;-73
2022/01/13 12:38:11;;;;;;;56.13;25.70;;;;;;;;;;5031125;28;20214;-73
2022/01/13 12:40:42;;;;;;;55.97;27.37;;;;;;;;;;5030645;28;20218;-73
2022/01/13 12:43:36;;;;;;;59.67;26.87;;;;;;;;;;5029164;28;20207;-73
2022/01/13 12:46:04;;;;;;;57.20;26.80;;;;;;;;;;5028643;28;20248;-73
2022/01/13 12:48:30;;;;;;;51.33;25.53;;;;;;;;;;5028887;28;20241;-73
2022/01/13 12:50:59;;;;;;;52.37;26.53;;;;;;;;;;5030288;28;20732;-73
2022/01/13 12:53:28;;;;;;;58.17;28.87;;;;;;;;;;5028267;28;20210;-73
2022/01/13 12:55:57;;;;;;;60.83;27.93;;;;;;;;;;5032925;28;20706;-73
2022/01/13 12:58:25;;;;;;;53.30;23.63;;;;;;;;;;5029369;28;20219;-73
2022/01/13 13:00:52;;;;;;;62.83;29.23;;;;;;;;;;5029456;28;20216;-74
2022/01/13 13:03:18;;;;;;;54.23;28.00;;;;;;;;;;5033014;28;20223;-73
2022/01/13 13:05:48;;;;;;;61.60;26.47;;;;;;;;;;5029282;28;20228;-73
2022/01/13 13:08:19;;;;;;;61.80;27.47;;;;;;;;;;5028050;28;20287;-74
2022/01/13 13:10:47;;;;;;;55.33;26.20;;;;;;;;;;5030741;28;20231;-74
2022/01/13 13:13:16;;;;;;;54.57;26.20;;;;;;;;;;5026854;28;20295;-72
2022/01/13 13:15:51;;;;;;;56.83;27.63;;;;;;;;;;5033524;28;20207;-75
2022/01/13 13:18:20;;;;;;;51.63;25.63;;;;;;;;;;5029766;28;20234;-75
2022/01/13 13:20:49;;;;;;;54.03;25.73;;;;;;;;;;5030137;28;20266;-73
2022/01/13 13:23:21;;;;;;;50.93;27.43;;;;;;;;;;5033491;28;20314;-73
2022/01/13 13:25:50;;;;;;;55.17;26.77;;;;;;;;;;5026489;28;21049;-72
2022/01/13 13:28:33;;;;;;;49.57;26.60;;;;;;;;;;5031753;28;20212;-74
2022/01/13 13:31:03;;;;;;;50.87;26.17;;;;;;;;;;5032470;28;20202;-73
2022/01/13 13:33:43;;;;;;;47.93;24.10;;;;;;;;;;5029008;28;20349;-72
2022/01/13 13:36:11;;;;;;;45.60;25.43;;;;;;;;;;5028253;28;20304;-72
2022/01/13 13:39:00;;;;;;;41.43;24.17;;;;;;;;;;5030611;28;20211;-73
2022/01/13 13:41:28;;;;;;;45.13;24.97;;;;;;;;;;5030190;28;20737;-73
2022/01/13 13:43:56;;;;;;;49.93;26.83;;;;;;;;;;5028170;28;20214;-73
2022/01/13 13:46:23;;;;;;;55.80;27.13;;;;;;;;;;5028183;28;20653;-73
2022/01/13 13:48:50;;;;;;;60.77;27.67;;;;;;;;;;5027006;28;20215;-73
2022/01/13 13:51:18;;;;;;;64.87;29.77;;;;;;;;;;5028249;28;21245;-73
2022/01/13 13:54:09;;;;;;;68.43;30.03;;;;;;;;;;5028768;28;20223;-73
2022/01/13 13:56:38;;;;;;;63.47;27.30;;;;;;;;;;5027011;28;20637;-73
2022/01/13 13:59:05;;;;;;;62.30;29.07;;;;;;;;;;5028833;28;20434;-76
2022/01/13 14:01:32;;;;;;;59.80;28.63;;;;;;;;;;5026619;28;20241;-75
2022/01/13 14:03:58;;;;;;;60.37;29.00;;;;;;;;;;5028256;28;20576;-75
2022/01/13 14:06:40;;;;;;;61.27;28.77;;;;;;;;;;5025575;28;20690;-75
2022/01/13 14:09:06;;;;;;;54.23;26.73;;;;;;;;;;5029022;28;20546;-74
2022/01/13 14:11:44;;;;;;;53.93;27.37;;;;;;;;;;5027498;28;20565;-73
2022/01/13 14:14:12;;;;;;;53.80;27.07;;;;;;;;;;5026055;28;20284;-73
2022/01/13 14:16:38;;;;;;;55.63;28.33;;;;;;;;;;5027144;28;20277;-73
2022/01/13 14:19:08;;;;;;;50.37;27.40;;;;;;;;;;5028607;28;20211;-73
2022/01/13 14:21:52;;;;;;;54.77;27.80;;;;;;;;;;5028506;28;21273;-73
2022/01/13 14:24:29;;;;;;;54.93;29.83;;;;;;;;;;5028994;28;20206;-73
2022/01/13 14:27:05;;;;;;;49.53;27.63;;;;;;;;;;5027015;28;20311;-75
2022/01/13 14:29:31;;;;;;;52.73;26.17;;;;;;;;;;5027592;28;20294;-74
2022/01/13 14:32:14;;;;;;;54.03;28.27;;;;;;;;;;5027088;28;20281;-74